Time;durP1;ratioP1;P1;durP2;ratioP2;P2;SDS_P1;SDS_P2;PMS_P1;PMS_P2;Temp;Humidity;BMP_temperature;BMP_pressure;BME280_temperature;BME280_humidity;BME280_pressure;Samples;Min_cycle;Max_cycle;Signal;HPM_P1;HPM_P2
2022/02/05 02:11:56;;;;;;;11.32;6.57;;;;;;;4.20;81.41;98648.81;4859410;29;20065;-89
2022/02/05 02:19:30;;;;;;;9.30;6.10;;;;;;;3.97;81.92;98619.50;4874629;29;20036;-89
2022/02/05 02:24:45;;;;;;;13.57;6.30;;;;;;;4.09;81.93;98643.38;4857414;29;20049;-89
2022/02/05 02:27:27;;;;;;;13.00;6.35;;;;;;;4.01;81.35;98631.25;4830533;29;20063;-89
2022/02/05 02:32:25;;;;;;;13.32;5.70;;;;;;;4.13;81.87;98637.47;4857626;29;20440;-89
2022/02/05 02:34:55;;;;;;;9.50;6.22;;;;;;;4.21;81.34;98652.25;4856324;29;20025;-89
2022/02/05 02:37:29;;;;;;;9.57;5.75;;;;;;;3.80;81.81;98599.88;4859277;29;20512;-89
2022/02/05 02:42:20;;;;;;;12.82;5.32;;;;;;;4.11;81.78;98642.16;4858882;29;20104;-89
2022/02/05 02:44:46;;;;;;;9.73;5.47;;;;;;;4.01;81.47;98628.63;4855418;29;20040;-89
2022/02/05 02:47:12;;;;;;;8.90;5.60;;;;;;;4.12;81.71;98645.59;4840363;29;20030;-89
2022/02/05 02:49:54;;;;;;;10.73;5.40;;;;;;;4.06;81.80;98639.34;4823372;29;20394;-89
2022/02/05 02:57:54;;;;;;;9.27;4.93;;;;;;;3.93;81.44;98655.28;4858553;29;20081;-88
2022/02/05 03:00:20;;;;;;;11.45;6.22;;;;;;;4.04;82.02;98669.63;4841594;29;20116;-88
2022/02/05 03:02:46;;;;;;;9.55;5.57;;;;;;;3.99;81.90;98666.81;4857741;29;20136;-88
2022/02/05 03:05:11;;;;;;;14.63;7.13;;;;;;;3.94;81.87;98659.50;4854012;29;20044;-88
2022/02/05 03:07:37;;;;;;;17.30;5.97;;;;;;;3.99;81.44;98672.91;4857425;29;20022;-88
2022/02/05 03:10:03;;;;;;;14.77;6.85;;;;;;;3.95;81.81;98673.53;4856393;29;20030;-88
2022/02/05 03:12:28;;;;;;;13.15;6.32;;;;;;;4.06;81.42;98681.59;4841251;29;20074;-88
2022/02/05 03:14:54;;;;;;;17.95;7.20;;;;;;;3.96;81.47;98678.59;4856150;29;20045;-88
2022/02/05 03:17:22;;;;;;;6.68;4.93;;;;;;;3.88;81.87;98667.47;4857534;29;20029;-88
2022/02/05 03:19:50;;;;;;;14.55;6.75;;;;;;;4.07;81.14;98701.69;4840160;29;20033;-89
2022/02/05 03:22:17;;;;;;;11.23;5.20;;;;;;;4.05;81.52;98698.47;4856740;29;20370;-88
2022/02/05 03:24:43;;;;;;;7.30;5.95;;;;;;;4.04;81.62;98699.47;4839719;29;20040;-88
2022/02/05 03:27:11;;;;;;;12.32;5.38;;;;;;;4.12;81.68;98703.72;4856684;29;20025;-88
2022/02/05 03:29:37;;;;;;;12.57;4.97;;;;;;;3.82;81.47;98657.75;4856219;29;20869;-89
2022/02/05 03:32:03;;;;;;;16.98;5.43;;;;;;;4.02;81.24;98690.16;4857939;29;20037;-88
2022/02/05 03:34:28;;;;;;;8.77;4.90;;;;;;;4.10;81.57;98700.47;4854424;29;20033;-89
2022/02/05 03:36:55;;;;;;;10.55;5.35;;;;;;;3.79;81.02;98640.50;4855124;29;20182;-89
2022/02/05 03:39:20;;;;;;;12.40;5.05;;;;;;;4.00;81.26;98685.06;4856210;29;20041;-88
2022/02/05 03:41:45;;;;;;;14.50;5.30;;;;;;;3.79;81.04;98661.63;4855750;29;20030;-89
2022/02/05 03:44:11;;;;;;;10.82;4.70;;;;;;;3.60;80.89;98631.63;4824152;29;20049;-89
2022/02/05 03:46:36;;;;;;;11.32;5.18;;;;;;;3.71;80.79;98653.94;4854399;29;20041;-88
2022/02/05 03:49:02;;;;;;;14.05;5.40;;;;;;;4.06;81.36;98713.28;4824200;29;20151;-89
2022/02/05 03:51:27;;;;;;;7.50;4.18;;;;;;;3.95;80.34;98692.00;4838975;29;20480;-88
2022/02/05 03:53:53;;;;;;;12.60;6.05;;;;;;;3.82;80.49;98681.50;4840130;29;20120;-89
2022/02/05 03:56:19;;;;;;;8.88;4.07;;;;;;;3.61;80.48;98657.00;4854233;29;20093;-89
2022/02/05 03:58:44;;;;;;;8.98;4.93;;;;;;;3.87;81.23;98713.38;4854353;29;20029;-89
2022/02/05 04:01:10;;;;;;;7.25;4.88;;;;;;;3.90;80.82;98715.59;4841072;29;20041;-88
2022/02/05 04:03:35;;;;;;;7.30;4.30;;;;;;;3.93;80.76;98709.91;4840639;29;20056;-88
2022/02/05 04:06:00;;;;;;;13.70;4.50;;;;;;;3.86;81.33;98715.19;4821789;29;20381;-88
2022/02/05 04:08:26;;;;;;;10.93;4.38;;;;;;;3.89;80.98;98720.03;4856608;29;20108;-89
2022/02/05 04:11:58;;;;;;;10.25;4.53;;;;;;;3.60;80.58;98678.34;4840504;29;20048;-89
2022/02/05 04:16:30;;;;;;;15.82;4.97;;;;;;;3.78;80.82;98710.94;4841985;29;20479;-89
2022/02/05 04:18:59;;;;;;;6.07;4.00;;;;;;;4.00;81.18;98755.56;4842154;29;20066;-89
2022/02/05 04:21:25;;;;;;;11.00;4.25;;;;;;;3.82;80.81;98727.19;4873379;29;20040;-89
2022/02/05 04:23:52;;;;;;;12.52;5.43;;;;;;;3.89;80.21;98745.66;4847552;29;20033;-88
2022/02/05 04:26:19;;;;;;;6.22;4.28;;;;;;;3.99;80.74;98753.94;4871580;29;20025;-89
2022/02/05 04:28:45;;;;;;;10.25;4.22;;;;;;;3.95;80.57;98756.19;4841131;29;20033;-89
2022/02/05 04:31:11;;;;;;;12.20;4.45;;;;;;;3.89;80.49;98729.81;4856126;29;20033;-89
2022/02/05 04:33:37;;;;;;;10.75;4.25;;;;;;;3.98;80.84;98755.75;4854848;29;20473;-89
2022/02/05 04:36:05;;;;;;;8.35;4.90;;;;;;;3.88;80.68;98751.94;4838827;29;20049;-88
2022/02/05 04:38:31;;;;;;;11.07;4.50;;;;;;;3.81;80.82;98730.84;4855498;29;20033;-88
2022/02/05 04:46:19;;;;;;;8.43;4.40;;;;;;;3.66;80.69;98711.81;4855416;29;20064;-89
2022/02/05 04:57:10;;;;;;;8.20;4.25;;;;;;;3.79;80.39;98749.53;4854733;29;20056;-89
2022/02/05 05:00:02;;;;;;;11.43;4.32;;;;;;;3.55;79.98;98709.81;4843206;29;20110;-89
2022/02/05 05:08:33;;;;;;;9.25;4.35;;;;;;;3.92;80.51;98785.63;4859530;29;20762;-89
2022/02/05 05:13:18;;;;;;;7.68;4.18;;;;;;;3.89;79.95;98779.97;4847876;29;20113;-89
2022/02/05 05:21:09;;;;;;;7.80;4.35;;;;;;;3.94;80.52;98804.72;4862216;29;20041;-89
2022/02/05 05:23:35;;;;;;;7.60;5.20;;;;;;;3.80;80.46;98774.09;4857757;29;20109;-89
2022/02/05 05:26:00;;;;;;;10.48;4.18;;;;;;;3.90;79.96;98776.31;4843503;29;20037;-89
2022/02/05 05:28:25;;;;;;;10.57;4.53;;;;;;;3.79;79.88;98773.28;4826495;29;20030;-89
2022/02/05 05:30:51;;;;;;;9.05;4.22;;;;;;;3.90;79.94;98792.97;4842911;29;20066;-89
2022/02/05 05:33:16;;;;;;;9.27;3.70;;;;;;;4.00;80.12;98809.16;4843111;29;20060;-88
2022/02/05 05:35:41;;;;;;;13.90;4.60;;;;;;;3.96;79.89;98807.97;4844322;29;21272;-88
2022/02/05 05:38:07;;;;;;;8.07;4.13;;;;;;;4.05;79.64;98822.56;4842479;29;20068;-89
2022/02/05 05:40:35;;;;;;;6.30;4.38;;;;;;;4.00;80.11;98805.75;4857921;29;20032;-89
2022/02/05 05:43:04;;;;;;;7.57;4.22;;;;;;;3.94;80.13;98803.91;4856796;29;20085;-89
2022/02/05 05:46:00;;;;;;;10.77;4.03;;;;;;;3.95;80.13;98802.91;4835110;29;20039;-89
2022/02/05 05:48:16;;;;;;;7.63;3.85;;;;;;;3.88;79.57;98808.19;4860337;29;20419;-89
2022/02/05 05:53:13;;;;;;;6.65;4.82;;;;;;;4.05;79.33;98838.41;4859235;29;20082;-89
2022/02/05 05:55:42;;;;;;;9.45;5.07;;;;;;;3.57;79.72;98776.38;4861657;29;20030;-88
2022/02/05 05:58:07;;;;;;;8.95;4.70;;;;;;;3.69;79.59;98803.78;4844016;29;20033;-89
2022/02/05 06:00:33;;;;;;;8.00;3.80;;;;;;;3.85;79.39;98824.44;4825790;29;20044;-89
2022/02/05 06:02:58;;;;;;;8.75;4.00;;;;;;;4.02;79.60;98854.66;4859325;29;20057;-89
2022/02/05 06:05:24;;;;;;;7.22;4.35;;;;;;;4.08;79.56;98853.84;4857755;29;20033;-88
2022/02/05 06:07:49;;;;;;;8.25;3.88;;;;;;;3.93;79.93;98845.38;4858195;29;20036;-88
2022/02/05 06:10:14;;;;;;;6.80;3.90;;;;;;;3.92;80.18;98858.75;4856722;29;20077;-88
2022/02/05 06:12:40;;;;;;;8.38;4.15;;;;;;;3.77;80.40;98824.66;4857707;29;20038;-88
2022/02/05 06:15:08;;;;;;;11.63;3.78;;;;;;;3.98;79.79;98842.91;4842819;29;20053;-88
2022/02/05 06:17:33;;;;;;;5.05;3.78;;;;;;;4.07;79.20;98846.13;4842964;29;20029;-88
2022/02/05 06:19:59;;;;;;;5.47;3.75;;;;;;;4.06;79.64;98861.19;4845366;29;20503;-88
2022/02/05 06:22:24;;;;;;;6.28;3.90;;;;;;;3.91;79.55;98831.53;4829173;29;20047;-88
2022/02/05 06:24:50;;;;;;;8.63;3.97;;;;;;;4.04;79.40;98865.03;4841662;29;20037;-88
2022/02/05 06:27:16;;;;;;;12.90;4.30;;;;;;;3.60;79.57;98812.91;4871893;29;20029;-88
2022/02/05 06:29:41;;;;;;;14.35;3.95;;;;;;;3.57;79.83;98802.75;4863325;29;20036;-88
2022/02/05 06:32:07;;;;;;;11.15;3.80;;;;;;;3.80;78.99;98824.22;4864157;29;20026;-88
2022/02/05 06:34:32;;;;;;;13.20;5.82;;;;;;;3.99;79.27;98860.38;4844579;29;20037;-88
2022/02/05 06:36:58;;;;;;;7.68;3.80;;;;;;;3.96;78.92;98867.88;4850075;29;20068;-88
2022/02/05 06:39:24;;;;;;;6.28;3.10;;;;;;;3.81;79.33;98847.00;4863241;29;20097;-88
2022/02/05 06:41:49;;;;;;;7.78;3.65;;;;;;;3.81;78.92;98862.81;4860370;29;20048;-88
2022/02/05 06:44:15;;;;;;;8.95;3.90;;;;;;;3.82;78.66;98851.28;4858537;29;20056;-88
2022/02/05 06:46:42;;;;;;;10.85;3.88;;;;;;;3.46;79.08;98803.38;4843627;29;20061;-88
2022/02/05 06:49:07;;;;;;;9.35;4.10;;;;;;;4.02;78.69;98896.91;4857882;29;20022;-88
2022/02/05 06:51:33;;;;;;;12.23;3.80;;;;;;;3.98;78.88;98881.69;4860431;29;20492;-88
2022/02/05 06:53:59;;;;;;;6.47;3.40;;;;;;;3.99;79.03;98910.53;4853964;29;20033;-88
2022/02/05 06:56:25;;;;;;;10.00;4.00;;;;;;;4.06;79.70;98919.28;4857789;29;20033;-88
2022/02/05 06:58:50;;;;;;;4.65;3.25;;;;;;;3.73;79.12;98881.53;4863689;29;20060;-88
2022/02/05 07:01:15;;;;;;;6.82;3.53;;;;;;;3.97;78.68;98909.94;4860522;29;20052;-88
2022/02/05 07:03:41;;;;;;;8.52;3.55;;;;;;;3.68;79.47;98868.94;4860234;29;20091;-88
2022/02/05 07:06:06;;;;;;;14.45;4.00;;;;;;;4.07;78.75;98920.88;4861300;29;20033;-89
2022/02/05 07:08:32;;;;;;;11.85;4.00;;;;;;;4.17;79.13;98942.41;4859684;29;20037;-88
2022/02/05 07:10:58;;;;;;;11.13;3.80;;;;;;;3.74;78.48;98889.22;4857508;29;20033;-88
2022/02/05 07:13:23;;;;;;;9.85;3.88;;;;;;;4.12;78.62;98944.84;4842562;29;21149;-88
2022/02/05 07:16:02;;;;;;;11.38;4.03;;;;;;;4.13;78.90;98940.41;4857779;29;20037;-89
2022/02/05 07:21:16;;;;;;;6.50;3.63;;;;;;;4.04;78.55;98942.41;4855649;29;20040;-89
2022/02/05 07:31:40;;;;;;;7.63;3.25;;;;;;;4.15;78.82;98978.78;4857724;29;20072;-88
2022/02/05 07:34:06;;;;;;;7.82;3.65;;;;;;;4.06;78.66;98964.16;4842628;29;20515;-88
2022/02/05 07:36:31;;;;;;;10.13;4.35;;;;;;;4.08;79.09;98980.63;4856928;29;20060;-88
2022/02/05 07:38:56;;;;;;;7.82;3.65;;;;;;;3.99;78.78;98954.63;4825630;29;20033;-88
2022/02/05 07:41:22;;;;;;;8.98;4.03;;;;;;;3.93;78.59;98944.88;4827608;29;20034;-89
2022/02/05 07:43:47;;;;;;;12.52;3.67;;;;;;;4.21;78.74;98999.09;4861172;29;20036;-88
2022/02/05 07:46:13;;;;;;;10.38;4.55;;;;;;;3.84;78.86;98949.53;4828182;29;20061;-89
2022/02/05 07:48:40;;;;;;;9.50;3.53;;;;;;;3.80;78.98;98945.66;4859976;29;20511;-89
2022/02/05 07:51:06;;;;;;;10.38;4.50;;;;;;;3.91;78.60;98939.78;4862233;29;20040;-89
2022/02/05 07:53:32;;;;;;;4.90;3.28;;;;;;;4.26;78.42;99011.72;4861522;29;20424;-89
2022/02/05 07:55:58;;;;;;;8.07;3.60;;;;;;;4.09;78.41;98998.06;4860791;29;20026;-89
2022/02/05 07:58:24;;;;;;;8.75;3.70;;;;;;;4.18;78.78;99018.00;4862232;29;20040;-89
2022/02/05 08:00:50;;;;;;;6.43;3.55;;;;;;;3.96;78.80;98976.94;4857153;29;20037;-89
2022/02/05 08:03:16;;;;;;;7.50;3.60;;;;;;;3.90;79.29;98966.38;4857868;29;20105;-89
2022/02/05 08:05:42;;;;;;;13.07;3.67;;;;;;;4.04;79.22;98991.78;4842572;29;20633;-89
2022/02/05 08:08:11;;;;;;;8.23;3.60;;;;;;;4.10;79.59;98991.78;4857717;29;20082;-89
2022/02/05 08:10:45;;;;;;;5.97;3.38;;;;;;;4.08;79.24;98987.72;4858818;29;20438;-88
2022/02/05 08:13:11;;;;;;;7.60;3.10;;;;;;;3.71;78.50;98936.34;4857774;29;20397;-90
2022/02/05 08:15:36;;;;;;;8.98;3.63;;;;;;;3.97;78.71;98986.50;4858075;29;20032;-91
2022/02/05 08:18:01;;;;;;;10.48;4.13;;;;;;;3.95;78.89;98980.63;4857440;29;20032;-90
2022/02/05 08:20:27;;;;;;;5.78;3.75;;;;;;;3.95;79.10;98988.53;4860782;29;20029;-90
2022/02/05 08:22:52;;;;;;;12.05;4.40;;;;;;;3.80;78.83;98945.66;4861178;29;20442;-90
2022/02/05 08:25:17;;;;;;;11.55;3.55;;;;;;;4.22;78.97;99008.66;4844011;29;20033;-90
2022/02/05 08:27:44;;;;;;;10.88;3.67;;;;;;;3.77;79.15;98938.16;4859255;29;20052;-89
2022/02/05 08:30:12;;;;;;;11.38;3.90;;;;;;;3.80;78.72;98948.31;4865504;29;20037;-90
2022/02/05 08:32:38;;;;;;;6.90;3.75;;;;;;;4.26;78.48;99011.72;4858154;29;20029;-89
2022/02/05 08:35:06;;;;;;;13.27;4.05;;;;;;;4.06;78.46;98981.84;4859004;29;20450;-89
2022/02/05 08:37:35;;;;;;;8.90;3.22;;;;;;;4.12;78.02;98999.50;4859534;29;20026;-90
2022/02/05 08:40:01;;;;;;;12.43;3.75;;;;;;;4.20;78.60;98992.19;4873914;29;20033;-89
2022/02/05 08:42:27;;;;;;;8.32;3.63;;;;;;;4.03;78.40;98966.38;4876673;29;20053;-90
2022/02/05 08:44:52;;;;;;;12.70;3.13;;;;;;;4.07;78.04;98971.06;4859927;29;20154;-89
2022/02/05 08:47:18;;;;;;;24.77;3.95;;;;;;;4.38;76.62;99016.16;4859406;29;20033;-90
2022/02/05 08:49:43;;;;;;;9.20;3.05;;;;;;;4.00;75.17;98967.59;4844098;29;20412;-88
2022/02/05 08:52:10;;;;;;;12.90;4.20;;;;;;;4.02;74.90;98964.78;4860941;29;20081;-90
2022/02/05 08:54:37;;;;;;;17.08;3.90;;;;;;;4.25;73.75;99005.59;4843655;29;20045;-90
2022/02/05 08:57:03;;;;;;;9.23;3.33;;;;;;;3.89;74.37;98939.16;4859458;29;20033;-90
2022/02/05 08:59:36;;;;;;;13.75;3.70;;;;;;;4.09;73.45;98978.78;4859485;29;20026;-92
2022/02/05 09:02:11;;;;;;;5.50;3.00;;;;;;;3.76;74.35;98918.06;4858840;29;20026;-89
2022/02/05 09:05:08;;;;;;;7.40;3.22;;;;;;;4.20;74.72;99010.69;4856813;29;20041;-90
2022/02/05 09:07:22;;;;;;;11.63;5.10;;;;;;;3.92;75.50;98957.25;4854453;29;20033;-91
2022/02/05 09:10:04;;;;;;;9.57;3.58;;;;;;;4.08;75.38;98991.19;4833990;29;20049;-91
2022/02/05 09:15:13;;;;;;;6.38;2.92;;;;;;;4.10;76.62;98978.59;4859429;29;20033;-89
2022/02/05 09:17:39;;;;;;;9.20;3.20;;;;;;;4.21;76.80;98987.72;4870308;29;20025;-90
2022/02/05 09:20:06;;;;;;;11.07;3.33;;;;;;;3.90;77.01;98938.16;4862670;29;20037;-90
2022/02/05 09:22:31;;;;;;;5.80;2.83;;;;;;;4.28;76.35;99004.38;4857538;29;20178;-90
2022/02/05 09:24:58;;;;;;;10.80;4.20;;;;;;;4.11;76.97;98969.63;4855086;29;20538;-90
2022/02/05 09:27:27;;;;;;;10.35;3.30;;;;;;;4.15;77.32;98962.91;4863493;29;20040;-91
2022/02/05 09:30:02;;;;;;;14.68;3.92;;;;;;;4.17;76.63;98986.50;4858793;29;20026;-91
2022/02/05 09:32:31;;;;;;;9.87;3.60;;;;;;;4.68;76.59;99060.63;4845850;29;20041;-90
2022/02/05 09:35:00;;;;;;;7.47;3.67;;;;;;;4.51;76.69;99026.72;4867041;29;20312;-92
2022/02/05 09:37:27;;;;;;;9.80;3.28;;;;;;;4.53;77.44;99037.91;4859330;29;20382;-90
2022/02/05 09:39:52;;;;;;;5.55;3.28;;;;;;;4.18;77.15;98973.09;4841836;29;20606;-89
2022/02/05 09:42:17;;;;;;;11.05;4.00;;;;;;;4.50;77.49;99021.63;4845669;29;20125;-90
2022/02/05 09:44:43;;;;;;;11.43;3.63;;;;;;;4.42;76.93;99012.09;4859403;29;20036;-90
2022/02/05 09:47:08;;;;;;;11.35;3.70;;;;;;;4.41;76.99;99007.81;4862570;29;20033;-89
2022/02/05 09:49:34;;;;;;;8.70;3.22;;;;;;;4.81;76.96;99071.19;4857850;29;20480;-90
2022/02/05 09:52:13;;;;;;;10.45;3.72;;;;;;;4.44;77.56;99010.06;4860856;29;20033;-90
2022/02/05 09:54:42;;;;;;;7.90;3.53;;;;;;;4.18;76.82;98959.88;4850193;29;20554;-90
2022/02/05 09:57:08;;;;;;;7.07;3.10;;;;;;;4.44;77.53;99003.94;4856120;29;20393;-89
2022/02/05 09:59:47;;;;;;;6.20;3.05;;;;;;;4.40;77.22;98994.81;4844870;29;20054;-90
2022/02/05 10:02:36;;;;;;;8.85;3.90;;;;;;;4.49;77.77;99010.25;4858579;29;20032;-89
2022/02/05 10:05:08;;;;;;;10.23;3.30;;;;;;;4.63;77.54;99031.38;4853971;29;20090;-90
2022/02/05 10:07:50;;;;;;;11.68;3.55;;;;;;;4.23;77.38;98967.19;4879051;29;20488;-91
2022/02/05 10:10:16;;;;;;;14.15;3.55;;;;;;;4.57;77.48;99025.91;4873491;29;20033;-89
2022/02/05 10:12:41;;;;;;;9.20;3.58;;;;;;;4.41;77.37;98993.81;4872482;29;20053;-90
2022/02/05 10:15:06;;;;;;;8.75;3.50;;;;;;;4.34;77.54;98985.88;4828919;29;20033;-90
2022/02/05 10:17:53;;;;;;;9.00;3.53;;;;;;;4.74;77.22;99054.56;4844367;29;20033;-90
2022/02/05 10:20:21;;;;;;;8.25;4.50;;;;;;;4.59;76.14;99027.53;4861329;29;20033;-90
2022/02/05 10:22:47;;;;;;;9.90;3.50;;;;;;;4.70;76.49;99030.34;4859715;29;20059;-90
2022/02/05 10:25:21;;;;;;;7.47;3.45;;;;;;;4.47;77.15;98999.09;4847974;29;20082;-89
2022/02/05 10:27:49;;;;;;;5.35;3.13;;;;;;;4.99;76.01;99068.72;4844169;29;20118;-89
2022/02/05 10:30:25;;;;;;;12.60;4.25;;;;;;;5.04;75.78;99079.50;4861721;29;20532;-91
2022/02/05 10:33:07;;;;;;;9.70;3.70;;;;;;;4.88;76.22;99049.03;4841226;29;20041;-91
2022/02/05 10:35:56;;;;;;;8.68;3.55;;;;;;;4.72;75.83;99023.00;4870520;29;20025;-91
2022/02/05 10:38:53;;;;;;;10.07;3.65;;;;;;;4.90;74.70;99056.75;4874776;29;20089;-91
2022/02/05 10:44:15;;;;;;;8.68;3.33;;;;;;;4.82;75.07;99028.72;4857103;29;20659;-91
2022/02/05 10:46:43;;;;;;;8.73;3.33;;;;;;;4.89;74.61;99036.63;4856889;29;20033;-90
2022/02/05 10:49:32;;;;;;;11.95;3.75;;;;;;;5.04;74.76;99069.75;4855690;29;20026;-89
2022/02/05 10:51:59;;;;;;;12.73;2.75;;;;;;;5.24;74.48;99091.66;4872687;29;20316;-91
2022/02/05 10:54:37;;;;;;;7.05;3.00;;;;;;;5.03;73.72;99048.78;4878967;29;20627;-90
2022/02/05 10:57:14;;;;;;;9.02;2.60;;;;;;;5.10;73.81;99065.44;4866055;29;20029;-90
2022/02/05 11:08:02;;;;;;;6.25;3.15;;;;;;;5.06;73.94;99045.72;4866788;29;20104;-91
2022/02/05 11:21:09;;;;;;;6.90;2.92;;;;;;;5.30;73.45;99084.72;4862867;29;20029;-91
2022/02/05 11:23:48;;;;;;;10.27;2.78;;;;;;;5.36;72.86;99075.13;4863146;29;20021;-90
2022/02/05 11:26:21;;;;;;;9.48;2.63;;;;;;;4.97;72.61;99013.41;4862737;29;20512;-90
2022/02/05 11:28:49;;;;;;;8.32;3.22;;;;;;;4.83;72.85;98995.13;4860125;29;20078;-92
2022/02/05 11:31:33;;;;;;;5.65;3.70;;;;;;;5.18;71.97;99046.69;4861269;29;20040;-92
2022/02/05 11:34:18;;;;;;;9.45;3.13;;;;;;;5.32;71.92;99059.69;4873753;29;20037;-90
2022/02/05 11:37:03;;;;;;;38.13;4.80;;;;;;;5.08;70.46;99022.53;4854464;29;20061;-90
2022/02/05 11:39:41;;;;;;;73.35;7.90;;;;;;;5.23;70.18;99047.69;4858958;29;20045;-89
2022/02/05 11:42:27;;;;;;;49.20;7.45;;;;;;;5.25;69.67;99044.84;4857950;29;20119;-89
2022/02/05 11:45:31;;;;;;;20.47;4.90;;;;;;;5.44;69.53;99073.06;4880850;29;20030;-91
2022/02/05 11:48:36;;;;;;;24.83;6.30;;;;;;;5.42;69.59;99079.59;4885822;29;20038;-90
2022/02/05 11:51:18;;;;;;;9.90;2.92;;;;;;;5.17;70.16;99047.72;4861901;29;20029;-90
2022/02/05 11:53:55;;;;;;;11.48;3.85;;;;;;;5.07;70.32;99020.88;4878240;29;20041;-90
2022/02/05 11:57:06;;;;;;;6.45;2.47;;;;;;;4.98;69.29;99006.28;4861757;29;20029;-90
2022/02/05 12:00:05;;;;;;;5.75;2.72;;;;;;;5.45;67.95;99061.47;4856372;29;20478;-90
2022/02/05 12:02:46;;;;;;;16.80;3.22;;;;;;;4.78;67.89;98971.16;4862702;29;20048;-91
2022/02/05 12:05:24;;;;;;;13.80;3.03;;;;;;;5.32;67.90;99042.97;4853861;29;20026;-90
2022/02/05 12:08:01;;;;;;;11.20;2.88;;;;;;;5.22;67.13;99030.19;4859817;29;20041;-89
2022/02/05 12:10:44;;;;;;;8.98;2.70;;;;;;;4.81;66.39;98939.81;4863294;29;20060;-90
2022/02/05 12:13:20;;;;;;;9.07;3.00;;;;;;;5.44;67.11;99037.84;4875905;29;20041;-89
2022/02/05 12:16:10;;;;;;;;;;;;;;;5.54;66.63;99046.16;4857724;29;20124;-89
2022/02/05 12:19:15;;;;;;;7.63;2.95;;;;;;;5.35;66.20;99016.13;4865053;29;19916;-88
2022/02/05 12:22:01;;;;;;;9.60;2.85;;;;;;;5.32;66.51;99027.09;4860246;29;20033;-88
2022/02/05 12:26:58;;;;;;;5.53;2.40;;;;;;;5.13;65.12;98975.09;4851556;29;20056;-88
2022/02/05 12:29:27;;;;;;;5.93;2.30;;;;;;;5.56;65.73;99029.03;4856755;29;20052;-88
2022/02/05 12:31:53;;;;;;;14.80;2.50;;;;;;;5.40;65.58;99015.44;4856141;29;20030;-88
2022/02/05 12:34:18;;;;;;;10.65;2.95;;;;;;;5.42;65.70;99035.41;4855146;29;20101;-90
2022/02/05 12:36:50;;;;;;;9.13;2.80;;;;;;;5.44;65.13;99009.53;4855409;29;20030;-88
2022/02/05 12:39:24;;;;;;;6.97;2.80;;;;;;;5.47;66.26;99010.94;4854082;29;20477;-88
2022/02/05 12:42:00;;;;;;;11.57;2.83;;;;;;;5.39;66.06;99001.44;4857117;29;20461;-88
2022/02/05 12:44:28;;;;;;;3.65;2.35;;;;;;;5.67;65.03;99044.25;4879616;29;20112;-88
2022/02/05 12:47:03;;;;;;;5.85;2.08;;;;;;;5.23;65.47;98963.03;4858925;29;20120;-89
2022/02/05 12:49:35;;;;;;;8.38;4.07;;;;;;;5.30;65.70;98973.59;4854829;29;20029;-88
2022/02/05 12:52:02;;;;;;;6.32;2.60;;;;;;;5.71;66.29;99041.97;4853125;29;20117;-88
2022/02/05 12:54:29;;;;;;;7.93;2.78;;;;;;;5.64;65.87;99025.31;4868438;29;20033;-89
2022/02/05 12:56:57;;;;;;;8.48;2.85;;;;;;;5.57;66.67;99012.09;4851134;29;20041;-89
2022/02/05 12:59:33;;;;;;;3.10;2.00;;;;;;;5.53;65.08;98997.69;4856399;29;20113;-88
2022/02/05 13:02:01;;;;;;;9.65;2.55;;;;;;;5.48;65.73;98986.94;4855224;29;20036;-88
2022/02/05 13:04:31;;;;;;;6.82;2.67;;;;;;;5.75;66.13;99038.69;4860268;29;20042;-87
2022/02/05 13:07:11;;;;;;;9.02;3.38;;;;;;;5.75;66.67;99036.03;4876337;29;20025;-89
2022/02/05 13:10:10;;;;;;;10.43;2.40;;;;;;;5.55;65.74;99011.50;4872514;29;20473;-88
2022/02/05 13:12:39;;;;;;;6.00;2.65;;;;;;;5.08;64.95;98924.66;4859623;29;20116;-91
2022/02/05 13:15:20;;;;;;;10.80;3.00;;;;;;;5.45;65.66;98982.06;4857882;29;20381;-90
2022/02/05 13:18:43;;;;;;;8.85;2.65;;;;;;;5.15;66.71;98928.91;4857702;29;20033;-91
2022/02/05 13:34:24;;;;;;;10.35;2.67;;;;;;;5.92;67.33;99010.69;4862260;29;20087;-90
2022/02/05 13:37:09;;;;;;;4.00;2.40;;;;;;;5.48;66.39;98947.22;4854996;29;20025;-91
2022/02/05 13:40:23;;;;;;;8.20;2.40;;;;;;;5.93;66.72;99009.69;4859082;29;20041;-91
2022/02/05 13:42:50;;;;;;;4.22;2.22;;;;;;;5.53;66.32;98955.31;4853322;29;20048;-91
2022/02/05 13:45:24;;;;;;;2.75;2.40;;;;;;;5.57;66.22;98964.44;4863247;29;20042;-91
2022/02/05 13:47:53;;;;;;;4.80;2.40;;;;;;;5.97;66.33;99023.31;4860467;29;20037;-91
2022/02/05 13:50:32;;;;;;;4.47;1.90;;;;;;;5.50;66.57;98947.00;4861313;29;20362;-91
2022/02/05 13:53:03;;;;;;;5.13;2.13;;;;;;;5.39;66.62;98915.94;4859392;29;20056;-91
2022/02/05 13:55:37;;;;;;;7.00;2.20;;;;;;;5.35;64.82;98912.09;4862092;29;20034;-91
2022/02/05 13:58:21;;;;;;;4.40;2.30;;;;;;;5.54;65.25;98942.91;4856753;29;20029;-90
2022/02/05 14:00:54;;;;;;;8.43;2.20;;;;;;;5.49;65.28;98951.47;4859591;29;20034;-91
2022/02/05 14:03:48;;;;;;;3.00;2.20;;;;;;;5.73;66.37;99010.78;4861709;29;20434;-91
2022/02/05 14:06:15;;;;;;;6.60;2.95;;;;;;;5.73;66.22;98987.78;4859076;29;20041;-91
2022/02/05 14:08:54;;;;;;;3.38;2.17;;;;;;;5.86;66.39;99018.69;4867193;29;20036;-91
2022/02/05 14:16:40;;;;;;;6.03;2.30;;;;;;;5.24;67.64;98917.00;5722181;23;20313;-85
2022/02/05 14:19:52;;;;;;;5.20;2.58;;;;;;;5.80;67.30;99017.69;4857912;29;20050;-85
2022/02/05 19:52:47;;;;;;;5.38;3.70;;;;;;;4.77;71.44;98811.72;4860081;29;20048;-90
2022/02/05 19:59:54;;;;;;;6.90;3.25;;;;;;;4.41;72.09;98779.78;4876204;29;20112;-91
2022/02/05 20:03:00;;;;;;;5.90;3.25;;;;;;;4.49;71.82;98782.16;4857160;29;20590;-90
2022/02/05 20:06:41;;;;;;;5.00;3.40;;;;;;;4.60;71.86;98807.94;4858167;29;20045;-91
2022/02/05 20:22:51;;;;;;;11.05;4.38;;;;;;;4.54;72.08;98783.16;4857917;29;20711;-89
2022/02/05 20:25:21;;;;;;;6.25;3.50;;;;;;;4.35;71.94;98740.97;4846671;29;20045;-90
2022/02/05 20:27:52;;;;;;;9.27;3.75;;;;;;;4.59;71.89;98765.88;4854140;29;20041;-89
2022/02/05 20:30:17;;;;;;;5.40;3.58;;;;;;;4.44;72.30;98747.63;4855653;29;20082;-90
2022/02/05 20:32:43;;;;;;;4.72;3.13;;;;;;;4.57;72.56;98771.34;4860235;29;20309;-89
2022/02/05 20:35:09;;;;;;;6.63;3.55;;;;;;;3.89;72.55;98661.19;4859359;29;20033;-89
2022/02/05 20:37:35;;;;;;;6.97;3.75;;;;;;;4.59;71.94;98766.66;4854920;29;20124;-88
2022/02/05 20:40:01;;;;;;;5.57;3.17;;;;;;;4.36;71.98;98726.75;4859543;29;20090;-88
2022/02/05 20:42:26;;;;;;;8.23;3.75;;;;;;;3.95;72.70;98663.78;4859325;29;20037;-87
2022/02/05 20:44:51;;;;;;;6.68;3.03;;;;;;;4.35;71.97;98709.25;4836303;29;20052;-87
2022/02/05 20:47:20;;;;;;;10.57;4.03;;;;;;;4.60;72.04;98743.69;4863427;29;20117;-87
2022/02/05 20:49:56;;;;;;;5.63;4.38;;;;;;;4.18;72.31;98679.91;4848165;29;20037;-88
2022/02/05 20:52:22;;;;;;;;;;;;;;;4.64;71.83;98748.34;4860024;29;20029;-87
2022/02/05 20:55:04;;;;;;;4.65;3.50;;;;;;;4.54;72.08;98748.00;4856390;29;19916;-88
2022/02/05 20:57:48;;;;;;;3.78;3.00;;;;;;;4.44;71.89;98722.03;4827197;29;22029;-88
2022/02/05 21:00:16;;;;;;;8.85;3.47;;;;;;;4.53;71.86;98730.50;4861930;29;20404;-88
2022/02/05 21:02:43;;;;;;;4.97;3.38;;;;;;;4.38;71.99;98695.66;4857166;29;20108;-89
2022/02/05 21:05:08;;;;;;;4.80;3.40;;;;;;;4.28;71.93;98674.97;4859426;29;20752;-89
2022/02/05 21:07:35;;;;;;;7.70;3.42;;;;;;;4.57;71.96;98726.41;4852084;29;20109;-88
2022/02/05 21:10:01;;;;;;;7.43;3.40;;;;;;;4.29;71.55;98679.22;4869181;29;20057;-88
2022/02/05 21:12:28;;;;;;;6.47;3.30;;;;;;;4.34;72.22;98674.13;4861520;29;20040;-88
2022/02/05 21:14:53;;;;;;;8.52;3.80;;;;;;;4.49;72.63;98695.78;4861344;29;20041;-88
2022/02/05 21:17:19;;;;;;;7.38;3.53;;;;;;;4.42;71.48;98671.22;4862496;29;20037;-88
2022/02/05 21:19:45;;;;;;;10.85;2.90;;;;;;;4.26;72.04;98647.16;4862042;29;20108;-88
2022/02/05 21:22:10;;;;;;;6.63;3.38;;;;;;;4.67;71.99;98702.97;4866403;29;20036;-88
2022/02/05 21:24:37;;;;;;;9.75;3.58;;;;;;;4.69;71.86;98700.13;4868918;29;20404;-88
2022/02/05 21:27:07;;;;;;;9.82;3.85;;;;;;;4.63;71.96;98687.75;4860988;29;20096;-87
2022/02/05 21:29:37;;;;;;;9.65;3.63;;;;;;;4.28;71.93;98640.63;4849048;29;20035;-89
2022/02/05 21:32:06;;;;;;;4.85;3.85;;;;;;;4.50;72.14;98663.03;4867198;29;20065;-88
2022/02/05 21:34:44;;;;;;;7.53;3.35;;;;;;;4.73;71.59;98694.19;4862895;29;20413;-88
2022/02/05 21:37:12;;;;;;;6.63;3.30;;;;;;;4.73;71.94;98693.38;4864406;29;20103;-88
2022/02/05 21:39:38;;;;;;;7.80;2.72;;;;;;;4.22;71.71;98606.31;4861161;29;20025;-88
2022/02/05 21:42:03;;;;;;;8.65;3.42;;;;;;;4.58;72.06;98664.63;4846189;29;20037;-88
2022/02/05 21:44:29;;;;;;;5.95;3.55;;;;;;;4.62;71.96;98678.19;4845840;29;20029;-89